sensor_id;sensor_type;location;lat;lon;timestamp;P1;durP1;ratioP1;P2;durP2;ratioP2
32106;SDS011;18622;51.998;10.440;2022-10-31T03:20:48;30.27;;;13.97;;
32106;SDS011;18622;51.998;10.440;2022-10-31T03:23:21;37.07;;;16.53;;
32106;SDS011;18622;51.998;10.440;2022-10-31T03:25:51;32.85;;;16.52;;
32106;SDS011;18622;51.998;10.440;2022-10-31T03:33:18;41.00;;;19.25;;
32106;SDS011;18622;51.998;10.440;2022-10-31T03:35:48;39.80;;;19.30;;
32106;SDS011;18622;51.998;10.440;2022-10-31T03:38:18;32.93;;;18.55;;
32106;SDS011;18622;51.998;10.440;2022-10-31T03:40:49;39.05;;;17.90;;
32106;SDS011;18622;51.998;10.440;2022-10-31T03:43:24;37.63;;;17.40;;
32106;SDS011;18622;51.998;10.440;2022-10-31T03:45:49;32.88;;;18.87;;
32106;SDS011;18622;51.998;10.440;2022-10-31T03:48:18;36.63;;;16.60;;
32106;SDS011;18622;51.998;10.440;2022-10-31T03:50:53;39.90;;;17.40;;
32106;SDS011;18622;51.998;10.440;2022-10-31T03:53:40;43.80;;;18.57;;
32106;SDS011;18622;51.998;10.440;2022-10-31T03:56:11;37.88;;;17.87;;
32106;SDS011;18622;51.998;10.440;2022-10-31T03:58:48;43.73;;;17.63;;
32106;SDS011;18622;51.998;10.440;2022-10-31T04:33:25;36.27;;;16.17;;
32106;SDS011;18622;51.998;10.440;2022-10-31T04:35:53;34.30;;;14.03;;
32106;SDS011;18622;51.998;10.440;2022-10-31T04:38:20;38.93;;;17.67;;
32106;SDS011;18622;51.998;10.440;2022-10-31T04:40:48;34.67;;;14.63;;
32106;SDS011;18622;51.998;10.440;2022-10-31T04:43:16;37.00;;;14.23;;
32106;SDS011;18622;51.998;10.440;2022-10-31T04:48:13;39.33;;;17.50;;
32106;SDS011;18622;51.998;10.440;2022-10-31T04:50:40;44.60;;;16.20;;
32106;SDS011;18622;51.998;10.440;2022-10-31T04:53:09;41.90;;;17.13;;
32106;SDS011;18622;51.998;10.440;2022-10-31T04:55:37;37.50;;;14.57;;
32106;SDS011;18622;51.998;10.440;2022-10-31T04:58:04;43.17;;;14.77;;
32106;SDS011;18622;51.998;10.440;2022-10-31T05:00:32;42.47;;;14.80;;
32106;SDS011;18622;51.998;10.440;2022-10-31T05:03:00;35.47;;;15.30;;
32106;SDS011;18622;51.998;10.440;2022-10-31T05:05:29;60.83;;;22.27;;
32106;SDS011;18622;51.998;10.440;2022-10-31T05:07:58;56.08;;;19.27;;
32106;SDS011;18622;51.998;10.440;2022-10-31T05:10:28;44.23;;;18.47;;
32106;SDS011;18622;51.998;10.440;2022-10-31T05:12:57;47.25;;;17.85;;
32106;SDS011;18622;51.998;10.440;2022-10-31T05:15:26;48.40;;;19.23;;
32106;SDS011;18622;51.998;10.440;2022-10-31T05:17:55;42.50;;;17.23;;
32106;SDS011;18622;51.998;10.440;2022-10-31T05:20:24;46.10;;;19.20;;
32106;SDS011;18622;51.998;10.440;2022-10-31T05:22:54;54.13;;;20.00;;
32106;SDS011;18622;51.998;10.440;2022-10-31T05:25:24;54.13;;;21.30;;
32106;SDS011;18622;51.998;10.440;2022-10-31T05:27:54;58.08;;;21.42;;
32106;SDS011;18622;51.998;10.440;2022-10-31T05:30:24;73.10;;;21.65;;
32106;SDS011;18622;51.998;10.440;2022-10-31T05:32:53;78.52;;;24.10;;
32106;SDS011;18622;51.998;10.440;2022-10-31T05:35:23;64.00;;;22.35;;
32106;SDS011;18622;51.998;10.440;2022-10-31T05:37:55;70.62;;;22.27;;
32106;SDS011;18622;51.998;10.440;2022-10-31T05:40:25;84.03;;;25.25;;
32106;SDS011;18622;51.998;10.440;2022-10-31T05:42:54;79.27;;;25.72;;
32106;SDS011;18622;51.998;10.440;2022-10-31T05:45:26;80.87;;;25.97;;
32106;SDS011;18622;51.998;10.440;2022-10-31T05:47:54;77.13;;;26.00;;
32106;SDS011;18622;51.998;10.440;2022-10-31T05:50:24;77.40;;;24.98;;
32106;SDS011;18622;51.998;10.440;2022-10-31T05:52:56;70.87;;;25.83;;
32106;SDS011;18622;51.998;10.440;2022-10-31T05:55:29;79.93;;;25.00;;
32106;SDS011;18622;51.998;10.440;2022-10-31T05:57:58;78.97;;;25.02;;
32106;SDS011;18622;51.998;10.440;2022-10-31T06:00:26;75.97;;;25.30;;
32106;SDS011;18622;51.998;10.440;2022-10-31T06:03:05;86.20;;;25.88;;
32106;SDS011;18622;51.998;10.440;2022-10-31T06:05:31;83.77;;;26.30;;
32106;SDS011;18622;51.998;10.440;2022-10-31T06:07:59;81.33;;;25.83;;
32106;SDS011;18622;51.998;10.440;2022-10-31T06:10:27;74.80;;;24.70;;
32106;SDS011;18622;51.998;10.440;2022-10-31T06:12:55;77.65;;;24.80;;
32106;SDS011;18622;51.998;10.440;2022-10-31T06:15:23;75.90;;;24.23;;
32106;SDS011;18622;51.998;10.440;2022-10-31T06:18:05;79.53;;;26.37;;
32106;SDS011;18622;51.998;10.440;2022-10-31T06:20:31;74.10;;;24.60;;
32106;SDS011;18622;51.998;10.440;2022-10-31T06:22:59;81.82;;;23.98;;
32106;SDS011;18622;51.998;10.440;2022-10-31T06:25:27;77.63;;;24.43;;
32106;SDS011;18622;51.998;10.440;2022-10-31T06:27:55;73.47;;;24.47;;
32106;SDS011;18622;51.998;10.440;2022-10-31T08:26:58;38.02;;;20.10;;
32106;SDS011;18622;51.998;10.440;2022-10-31T08:29:25;49.80;;;21.97;;
32106;SDS011;18622;51.998;10.440;2022-10-31T08:31:53;46.20;;;21.90;;
32106;SDS011;18622;51.998;10.440;2022-10-31T08:34:21;41.97;;;21.20;;
32106;SDS011;18622;51.998;10.440;2022-10-31T08:36:49;40.83;;;20.43;;
32106;SDS011;18622;51.998;10.440;2022-10-31T08:39:17;39.60;;;19.63;;
32106;SDS011;18622;51.998;10.440;2022-10-31T08:41:45;40.53;;;20.23;;
32106;SDS011;18622;51.998;10.440;2022-10-31T08:44:12;34.20;;;18.70;;
32106;SDS011;18622;51.998;10.440;2022-10-31T08:46:41;35.78;;;18.45;;
32106;SDS011;18622;51.998;10.440;2022-10-31T08:49:09;36.50;;;20.57;;
32106;SDS011;18622;51.998;10.440;2022-10-31T08:51:37;36.07;;;18.03;;
32106;SDS011;18622;51.998;10.440;2022-10-31T08:54:04;32.77;;;17.67;;
32106;SDS011;18622;51.998;10.440;2022-10-31T08:56:32;36.33;;;17.50;;
32106;SDS011;18622;51.998;10.440;2022-10-31T08:59:00;36.00;;;17.43;;
32106;SDS011;18622;51.998;10.440;2022-10-31T09:01:28;32.87;;;16.03;;
32106;SDS011;18622;51.998;10.440;2022-10-31T09:03:56;33.63;;;16.03;;
32106;SDS011;18622;51.998;10.440;2022-10-31T09:06:23;28.97;;;16.70;;
32106;SDS011;18622;51.998;10.440;2022-10-31T09:08:51;35.97;;;16.80;;
32106;SDS011;18622;51.998;10.440;2022-10-31T09:11:19;34.63;;;17.43;;
32106;SDS011;18622;51.998;10.440;2022-10-31T09:13:47;35.40;;;16.60;;
32106;SDS011;18622;51.998;10.440;2022-10-31T09:16:15;34.10;;;15.50;;
32106;SDS011;18622;51.998;10.440;2022-10-31T09:18:42;33.00;;;15.20;;
32106;SDS011;18622;51.998;10.440;2022-10-31T09:21:10;31.17;;;15.67;;
32106;SDS011;18622;51.998;10.440;2022-10-31T09:23:38;33.73;;;14.50;;
32106;SDS011;18622;51.998;10.440;2022-10-31T09:26:06;28.93;;;15.80;;
32106;SDS011;18622;51.998;10.440;2022-10-31T09:28:34;38.27;;;15.07;;
32106;SDS011;18622;51.998;10.440;2022-10-31T09:31:02;29.30;;;14.57;;
32106;SDS011;18622;51.998;10.440;2022-10-31T09:33:30;31.43;;;14.90;;
32106;SDS011;18622;51.998;10.440;2022-10-31T09:35:58;31.93;;;15.20;;
32106;SDS011;18622;51.998;10.440;2022-10-31T09:38:25;32.40;;;15.98;;
32106;SDS011;18622;51.998;10.440;2022-10-31T09:43:40;34.67;;;15.40;;
32106;SDS011;18622;51.998;10.440;2022-10-31T09:46:20;33.33;;;17.82;;
32106;SDS011;18622;51.998;10.440;2022-10-31T09:54:09;36.97;;;15.87;;
32106;SDS011;18622;51.998;10.440;2022-10-31T09:56:37;32.58;;;15.88;;
32106;SDS011;18622;51.998;10.440;2022-10-31T09:59:06;22.20;;;14.20;;
32106;SDS011;18622;51.998;10.440;2022-10-31T10:01:53;30.80;;;16.80;;
32106;SDS011;18622;51.998;10.440;2022-10-31T10:04:27;36.07;;;16.17;;
32106;SDS011;18622;51.998;10.440;2022-10-31T10:07:08;27.80;;;15.83;;
32106;SDS011;18622;51.998;10.440;2022-10-31T10:09:39;36.33;;;17.57;;
32106;SDS011;18622;51.998;10.440;2022-10-31T10:12:16;26.33;;;15.77;;
32106;SDS011;18622;51.998;10.440;2022-10-31T10:17:25;30.93;;;18.00;;
32106;SDS011;18622;51.998;10.440;2022-10-31T10:20:04;31.67;;;17.67;;
32106;SDS011;18622;51.998;10.440;2022-10-31T10:22:42;32.63;;;17.13;;
32106;SDS011;18622;51.998;10.440;2022-10-31T10:25:22;26.35;;;14.98;;
32106;SDS011;18622;51.998;10.440;2022-10-31T10:28:03;30.17;;;14.80;;
32106;SDS011;18622;51.998;10.440;2022-10-31T10:31:00;26.48;;;14.25;;
32106;SDS011;18622;51.998;10.440;2022-10-31T10:33:52;26.90;;;13.90;;
32106;SDS011;18622;51.998;10.440;2022-10-31T10:36:36;30.70;;;14.70;;
32106;SDS011;18622;51.998;10.440;2022-10-31T10:39:23;30.77;;;14.43;;
32106;SDS011;18622;51.998;10.440;2022-10-31T10:41:57;28.23;;;13.63;;
32106;SDS011;18622;51.998;10.440;2022-10-31T10:44:44;29.95;;;13.48;;
32106;SDS011;18622;51.998;10.440;2022-10-31T10:47:41;25.05;;;12.85;;
32106;SDS011;18622;51.998;10.440;2022-10-31T10:50:14;27.70;;;13.13;;
32106;SDS011;18622;51.998;10.440;2022-10-31T10:53:01;25.83;;;14.40;;
32106;SDS011;18622;51.998;10.440;2022-10-31T10:55:32;23.83;;;13.60;;
32106;SDS011;18622;51.998;10.440;2022-10-31T10:58:12;28.07;;;14.60;;
32106;SDS011;18622;51.998;10.440;2022-10-31T11:00:44;30.00;;;14.23;;
32106;SDS011;18622;51.998;10.440;2022-10-31T11:03:13;28.12;;;12.70;;
32106;SDS011;18622;51.998;10.440;2022-10-31T11:05:44;22.25;;;12.37;;
32106;SDS011;18622;51.998;10.440;2022-10-31T11:08:30;32.20;;;13.20;;
32106;SDS011;18622;51.998;10.440;2022-10-31T11:10:59;20.23;;;12.20;;
32106;SDS011;18622;51.998;10.440;2022-10-31T11:13:33;22.93;;;10.63;;
32106;SDS011;18622;51.998;10.440;2022-10-31T11:16:03;20.05;;;10.10;;
32106;SDS011;18622;51.998;10.440;2022-10-31T11:18:38;19.20;;;9.90;;
32106;SDS011;18622;51.998;10.440;2022-10-31T11:21:27;19.83;;;10.67;;
32106;SDS011;18622;51.998;10.440;2022-10-31T11:24:13;24.50;;;11.03;;
32106;SDS011;18622;51.998;10.440;2022-10-31T11:26:46;17.12;;;9.58;;
32106;SDS011;18622;51.998;10.440;2022-10-31T11:29:24;24.37;;;10.83;;
32106;SDS011;18622;51.998;10.440;2022-10-31T11:31:49;20.63;;;8.93;;
32106;SDS011;18622;51.998;10.440;2022-10-31T11:34:41;17.17;;;9.43;;
32106;SDS011;18622;51.998;10.440;2022-10-31T11:37:10;15.57;;;8.37;;
32106;SDS011;18622;51.998;10.440;2022-10-31T11:39:50;18.27;;;9.80;;
32106;SDS011;18622;51.998;10.440;2022-10-31T11:42:24;16.87;;;8.57;;
32106;SDS011;18622;51.998;10.440;2022-10-31T11:44:53;20.57;;;9.73;;
32106;SDS011;18622;51.998;10.440;2022-10-31T11:47:31;18.75;;;9.48;;
32106;SDS011;18622;51.998;10.440;2022-10-31T11:49:56;15.33;;;8.27;;
32106;SDS011;18622;51.998;10.440;2022-10-31T11:52:27;24.57;;;8.93;;
32106;SDS011;18622;51.998;10.440;2022-10-31T11:54:58;17.00;;;8.03;;
32106;SDS011;18622;51.998;10.440;2022-10-31T11:57:43;17.05;;;8.40;;
32106;SDS011;18622;51.998;10.440;2022-10-31T16:03:30;73.03;;;33.37;;
32106;SDS011;18622;51.998;10.440;2022-10-31T16:06:00;67.08;;;32.70;;
32106;SDS011;18622;51.998;10.440;2022-10-31T16:16:13;66.20;;;31.53;;
32106;SDS011;18622;51.998;10.440;2022-10-31T16:18:43;62.53;;;29.60;;
32106;SDS011;18622;51.998;10.440;2022-10-31T16:21:11;68.00;;;33.93;;
32106;SDS011;18622;51.998;10.440;2022-10-31T16:23:45;79.73;;;34.13;;
32106;SDS011;18622;51.998;10.440;2022-10-31T16:26:14;66.97;;;33.65;;
32106;SDS011;18622;51.998;10.440;2022-10-31T16:28:50;76.92;;;36.68;;
32106;SDS011;18622;51.998;10.440;2022-10-31T16:33:49;67.72;;;36.83;;
32106;SDS011;18622;51.998;10.440;2022-10-31T16:41:25;74.03;;;37.10;;
32106;SDS011;18622;51.998;10.440;2022-10-31T16:43:53;75.97;;;37.43;;
32106;SDS011;18622;51.998;10.440;2022-10-31T16:46:26;79.23;;;37.10;;
32106;SDS011;18622;51.998;10.440;2022-10-31T16:48:52;82.62;;;38.80;;
32106;SDS011;18622;51.998;10.440;2022-10-31T16:51:20;83.15;;;39.35;;
32106;SDS011;18622;51.998;10.440;2022-10-31T16:53:50;79.57;;;39.30;;
32106;SDS011;18622;51.998;10.440;2022-10-31T16:56:28;85.03;;;41.07;;
32106;SDS011;18622;51.998;10.440;2022-10-31T16:58:50;97.07;;;45.20;;
32106;SDS011;18622;51.998;10.440;2022-10-31T17:01:18;100.53;;;44.33;;
32106;SDS011;18622;51.998;10.440;2022-10-31T17:03:46;107.83;;;44.40;;
32106;SDS011;18622;51.998;10.440;2022-10-31T17:06:13;91.80;;;43.23;;
32106;SDS011;18622;51.998;10.440;2022-10-31T17:08:41;105.13;;;45.10;;
32106;SDS011;18622;51.998;10.440;2022-10-31T17:11:14;99.37;;;44.83;;
32106;SDS011;18622;51.998;10.440;2022-10-31T17:13:40;110.80;;;47.38;;
32106;SDS011;18622;51.998;10.440;2022-10-31T17:16:08;100.70;;;45.63;;
32106;SDS011;18622;51.998;10.440;2022-10-31T17:18:37;101.95;;;46.30;;
32106;SDS011;18622;51.998;10.440;2022-10-31T17:21:05;113.70;;;47.37;;
32106;SDS011;18622;51.998;10.440;2022-10-31T17:23:33;102.63;;;45.50;;
32106;SDS011;18622;51.998;10.440;2022-10-31T17:26:02;120.37;;;48.25;;
32106;SDS011;18622;51.998;10.440;2022-10-31T17:28:31;128.32;;;49.77;;
32106;SDS011;18622;51.998;10.440;2022-10-31T17:30:59;117.67;;;47.73;;
32106;SDS011;18622;51.998;10.440;2022-10-31T17:33:26;111.93;;;47.03;;
32106;SDS011;18622;51.998;10.440;2022-10-31T17:35:54;126.10;;;48.70;;
32106;SDS011;18622;51.998;10.440;2022-10-31T17:38:22;119.33;;;46.50;;
32106;SDS011;18622;51.998;10.440;2022-10-31T17:40:50;122.27;;;46.47;;
32106;SDS011;18622;51.998;10.440;2022-10-31T17:43:18;115.93;;;46.90;;
32106;SDS011;18622;51.998;10.440;2022-10-31T17:45:46;126.70;;;48.27;;
32106;SDS011;18622;51.998;10.440;2022-10-31T17:48:13;136.20;;;50.13;;
32106;SDS011;18622;51.998;10.440;2022-10-31T17:50:41;119.07;;;48.57;;
32106;SDS011;18622;51.998;10.440;2022-10-31T17:53:09;129.97;;;49.47;;
32106;SDS011;18622;51.998;10.440;2022-10-31T17:55:37;118.87;;;47.53;;
32106;SDS011;18622;51.998;10.440;2022-10-31T17:58:05;127.00;;;48.63;;
32106;SDS011;18622;51.998;10.440;2022-10-31T18:00:33;129.00;;;48.33;;
32106;SDS011;18622;51.998;10.440;2022-10-31T18:03:01;131.13;;;48.50;;
32106;SDS011;18622;51.998;10.440;2022-10-31T18:05:29;125.92;;;50.67;;
32106;SDS011;18622;51.998;10.440;2022-10-31T18:07:57;135.23;;;51.33;;
32106;SDS011;18622;51.998;10.440;2022-10-31T18:10:25;163.60;;;54.83;;
32106;SDS011;18622;51.998;10.440;2022-10-31T18:12:53;153.80;;;51.73;;
32106;SDS011;18622;51.998;10.440;2022-10-31T18:15:21;164.00;;;54.40;;
32106;SDS011;18622;51.998;10.440;2022-10-31T18:17:49;149.57;;;52.10;;
32106;SDS011;18622;51.998;10.440;2022-10-31T18:20:16;159.53;;;53.90;;
32106;SDS011;18622;51.998;10.440;2022-10-31T18:22:44;148.60;;;52.93;;
32106;SDS011;18622;51.998;10.440;2022-10-31T18:25:12;154.73;;;55.00;;
32106;SDS011;18622;51.998;10.440;2022-10-31T18:27:40;150.90;;;52.50;;
32106;SDS011;18622;51.998;10.440;2022-10-31T18:30:08;147.83;;;51.07;;
32106;SDS011;18622;51.998;10.440;2022-10-31T18:32:36;153.72;;;52.40;;
32106;SDS011;18622;51.998;10.440;2022-10-31T18:35:04;145.43;;;53.37;;
32106;SDS011;18622;51.998;10.440;2022-10-31T18:37:32;175.72;;;60.12;;
32106;SDS011;18622;51.998;10.440;2022-10-31T18:40:00;152.77;;;55.03;;
32106;SDS011;18622;51.998;10.440;2022-10-31T18:42:28;157.52;;;53.92;;
32106;SDS011;18622;51.998;10.440;2022-10-31T18:44:56;145.23;;;52.27;;
32106;SDS011;18622;51.998;10.440;2022-10-31T18:47:23;145.93;;;53.40;;
32106;SDS011;18622;51.998;10.440;2022-10-31T18:49:51;149.53;;;53.83;;
32106;SDS011;18622;51.998;10.440;2022-10-31T18:52:19;150.23;;;52.80;;
32106;SDS011;18622;51.998;10.440;2022-10-31T18:54:47;151.47;;;56.20;;
32106;SDS011;18622;51.998;10.440;2022-10-31T18:57:15;159.03;;;53.27;;
32106;SDS011;18622;51.998;10.440;2022-10-31T18:59:42;152.87;;;53.87;;
32106;SDS011;18622;51.998;10.440;2022-10-31T19:02:13;149.17;;;54.53;;
32106;SDS011;18622;51.998;10.440;2022-10-31T19:04:42;182.43;;;55.60;;
32106;SDS011;18622;51.998;10.440;2022-10-31T19:07:10;161.60;;;55.43;;
32106;SDS011;18622;51.998;10.440;2022-10-31T19:09:38;171.37;;;56.90;;
32106;SDS011;18622;51.998;10.440;2022-10-31T19:12:06;155.97;;;56.93;;
32106;SDS011;18622;51.998;10.440;2022-10-31T19:14:34;160.73;;;57.03;;
32106;SDS011;18622;51.998;10.440;2022-10-31T19:17:02;129.70;;;53.73;;
32106;SDS011;18622;51.998;10.440;2022-10-31T19:19:29;121.17;;;51.27;;
32106;SDS011;18622;51.998;10.440;2022-10-31T19:21:57;131.90;;;51.53;;
32106;SDS011;18622;51.998;10.440;2022-10-31T19:24:26;139.57;;;52.47;;
32106;SDS011;18622;51.998;10.440;2022-10-31T19:26:54;136.10;;;50.37;;
32106;SDS011;18622;51.998;10.440;2022-10-31T19:29:22;128.18;;;49.75;;
32106;SDS011;18622;51.998;10.440;2022-10-31T19:31:50;119.10;;;47.63;;
32106;SDS011;18622;51.998;10.440;2022-10-31T19:34:18;123.73;;;48.87;;
32106;SDS011;18622;51.998;10.440;2022-10-31T19:36:46;110.13;;;45.97;;
32106;SDS011;18622;51.998;10.440;2022-10-31T19:39:14;123.83;;;50.83;;
32106;SDS011;18622;51.998;10.440;2022-10-31T19:41:42;107.40;;;47.77;;
32106;SDS011;18622;51.998;10.440;2022-10-31T19:44:09;119.00;;;47.77;;
32106;SDS011;18622;51.998;10.440;2022-10-31T19:46:37;108.43;;;46.97;;
32106;SDS011;18622;51.998;10.440;2022-10-31T19:49:08;115.72;;;47.88;;
32106;SDS011;18622;51.998;10.440;2022-10-31T19:51:36;121.28;;;48.92;;
32106;SDS011;18622;51.998;10.440;2022-10-31T19:54:04;116.63;;;46.87;;
32106;SDS011;18622;51.998;10.440;2022-10-31T19:56:33;118.10;;;48.58;;
32106;SDS011;18622;51.998;10.440;2022-10-31T19:59:01;141.73;;;49.57;;
32106;SDS011;18622;51.998;10.440;2022-10-31T20:01:29;134.13;;;48.47;;
32106;SDS011;18622;51.998;10.440;2022-10-31T20:03:57;139.40;;;50.37;;
32106;SDS011;18622;51.998;10.440;2022-10-31T20:06:31;122.03;;;48.37;;
32106;SDS011;18622;51.998;10.440;2022-10-31T20:09:02;143.07;;;48.30;;
32106;SDS011;18622;51.998;10.440;2022-10-31T20:11:32;140.73;;;48.73;;
32106;SDS011;18622;51.998;10.440;2022-10-31T20:16:29;139.37;;;47.78;;
32106;SDS011;18622;51.998;10.440;2022-10-31T20:18:57;153.20;;;49.53;;
32106;SDS011;18622;51.998;10.440;2022-10-31T20:21:26;150.17;;;48.67;;
32106;SDS011;18622;51.998;10.440;2022-10-31T20:23:56;148.47;;;48.48;;
32106;SDS011;18622;51.998;10.440;2022-10-31T20:26:25;146.32;;;47.08;;
32106;SDS011;18622;51.998;10.440;2022-10-31T20:28:55;155.47;;;48.13;;
32106;SDS011;18622;51.998;10.440;2022-10-31T20:31:24;166.40;;;49.63;;
32106;SDS011;18622;51.998;10.440;2022-10-31T20:33:53;154.47;;;48.13;;
32106;SDS011;18622;51.998;10.440;2022-10-31T20:36:22;168.43;;;47.17;;
32106;SDS011;18622;51.998;10.440;2022-10-31T20:38:50;138.50;;;44.20;;
32106;SDS011;18622;51.998;10.440;2022-10-31T20:41:18;143.20;;;44.98;;
32106;SDS011;18622;51.998;10.440;2022-10-31T20:43:46;135.30;;;43.33;;
32106;SDS011;18622;51.998;10.440;2022-10-31T20:46:18;114.17;;;41.13;;
32106;SDS011;18622;51.998;10.440;2022-10-31T20:48:48;94.77;;;37.57;;
32106;SDS011;18622;51.998;10.440;2022-10-31T20:51:22;114.87;;;40.37;;
32106;SDS011;18622;51.998;10.440;2022-10-31T20:53:54;124.13;;;42.47;;
32106;SDS011;18622;51.998;10.440;2022-10-31T20:56:23;119.00;;;42.30;;
32106;SDS011;18622;51.998;10.440;2022-10-31T20:58:53;127.07;;;41.20;;
32106;SDS011;18622;51.998;10.440;2022-10-31T21:01:22;122.98;;;40.88;;
32106;SDS011;18622;51.998;10.440;2022-10-31T21:03:54;121.75;;;44.03;;
32106;SDS011;18622;51.998;10.440;2022-10-31T21:06:23;114.80;;;41.23;;
32106;SDS011;18622;51.998;10.440;2022-10-31T21:08:51;116.77;;;41.70;;
32106;SDS011;18622;51.998;10.440;2022-10-31T21:11:20;115.75;;;41.05;;
32106;SDS011;18622;51.998;10.440;2022-10-31T21:13:50;117.90;;;39.53;;
32106;SDS011;18622;51.998;10.440;2022-10-31T21:16:19;98.30;;;38.48;;
32106;SDS011;18622;51.998;10.440;2022-10-31T21:18:52;113.23;;;38.40;;
32106;SDS011;18622;51.998;10.440;2022-10-31T21:21:29;112.65;;;39.65;;
32106;SDS011;18622;51.998;10.440;2022-10-31T21:23:55;116.27;;;40.07;;
32106;SDS011;18622;51.998;10.440;2022-10-31T21:26:32;101.07;;;38.47;;
32106;SDS011;18622;51.998;10.440;2022-10-31T21:29:01;114.28;;;40.30;;
32106;SDS011;18622;51.998;10.440;2022-10-31T21:31:30;104.67;;;38.73;;
32106;SDS011;18622;51.998;10.440;2022-10-31T21:33:59;112.50;;;39.35;;
32106;SDS011;18622;51.998;10.440;2022-10-31T21:36:26;114.67;;;41.43;;
32106;SDS011;18622;51.998;10.440;2022-10-31T21:38:54;134.30;;;43.17;;
32106;SDS011;18622;51.998;10.440;2022-10-31T21:41:23;133.97;;;44.73;;
32106;SDS011;18622;51.998;10.440;2022-10-31T21:43:52;136.83;;;42.87;;
32106;SDS011;18622;51.998;10.440;2022-10-31T21:46:21;148.62;;;45.78;;
32106;SDS011;18622;51.998;10.440;2022-10-31T21:48:50;132.93;;;43.70;;
32106;SDS011;18622;51.998;10.440;2022-10-31T21:51:19;139.22;;;43.40;;
32106;SDS011;18622;51.998;10.440;2022-10-31T21:53:48;143.37;;;43.73;;
32106;SDS011;18622;51.998;10.440;2022-10-31T21:56:34;136.33;;;43.83;;
32106;SDS011;18622;51.998;10.440;2022-10-31T21:59:02;152.40;;;45.00;;
